createdAt,value
2019-01-26T00:01:05.818Z,6.70
2019-01-26T00:03:33.223Z,4.70
2019-01-26T00:06:00.558Z,4.70
2019-01-26T00:08:27.979Z,4.70
2019-01-26T00:10:55.317Z,4.70
2019-01-26T00:13:22.603Z,4.80
2019-01-26T00:18:17.187Z,4.70
2019-01-26T00:20:44.481Z,6.00
2019-01-26T00:23:11.856Z,4.80
2019-01-26T00:25:39.053Z,4.80
2019-01-26T00:28:06.396Z,4.80
2019-01-26T00:30:33.687Z,4.80
2019-01-26T00:33:00.875Z,4.90
2019-01-26T00:35:28.211Z,4.90
2019-01-26T00:37:55.605Z,4.90
2019-01-26T00:40:22.867Z,7.70
2019-01-26T00:42:50.231Z,4.90
2019-01-26T00:45:17.554Z,4.80
2019-01-26T00:47:44.911Z,4.90
2019-01-26T00:50:12.500Z,4.90
2019-01-26T00:52:39.744Z,7.10
2019-01-26T00:55:07.204Z,5.00
2019-01-26T00:57:34.400Z,5.00
2019-01-26T01:00:01.754Z,7.00
2019-01-26T01:04:56.486Z,5.00
2019-01-26T01:07:23.853Z,5.00
2019-01-26T01:09:51.148Z,5.00
2019-01-26T01:12:18.461Z,5.00
2019-01-26T01:14:45.740Z,5.60
2019-01-26T01:17:13.101Z,4.90
2019-01-26T01:19:40.378Z,4.90
2019-01-26T01:22:07.738Z,5.00
2019-01-26T01:24:35.114Z,5.00
2019-01-26T01:27:02.546Z,4.90
2019-01-26T01:29:29.875Z,4.90
2019-01-26T01:31:57.314Z,6.00
2019-01-26T01:34:24.602Z,4.90
2019-01-26T01:36:51.901Z,5.00
2019-01-26T01:39:19.235Z,4.90
2019-01-26T01:41:46.648Z,4.90
2019-01-26T01:44:14.053Z,5.00
2019-01-26T01:46:43.009Z,5.00
2019-01-26T01:49:10.590Z,5.00
2019-01-26T01:51:37.905Z,5.00
2019-01-26T01:54:05.295Z,5.00
2019-01-26T01:56:32.650Z,5.00
2019-01-26T01:58:59.958Z,6.00
2019-01-26T02:01:27.213Z,5.10
2019-01-26T02:03:54.577Z,5.20
2019-01-26T02:06:21.861Z,5.20
2019-01-26T02:08:49.210Z,5.20
2019-01-26T02:11:16.537Z,5.20
2019-01-26T02:13:43.741Z,8.40
2019-01-26T02:16:11.068Z,7.50
2019-01-26T02:18:38.842Z,5.20
2019-01-26T02:23:34.039Z,5.30
2019-01-26T02:26:01.495Z,5.30
2019-01-26T02:28:28.944Z,5.30
2019-01-26T02:30:56.254Z,7.80
2019-01-26T02:33:23.689Z,5.40
2019-01-26T02:35:51.046Z,5.40
2019-01-26T02:38:18.331Z,5.60
2019-01-26T02:40:45.625Z,5.40
2019-01-26T02:43:12.921Z,5.50
2019-01-26T02:45:40.242Z,5.50
2019-01-26T02:48:07.679Z,5.50
2019-01-26T02:50:34.976Z,5.50
2019-01-26T02:53:02.410Z,7.20
2019-01-26T02:55:29.803Z,5.60
2019-01-26T02:57:57.128Z,5.60
2019-01-26T03:00:24.409Z,7.30
2019-01-26T03:02:52.130Z,5.70
2019-01-26T03:05:19.333Z,5.90
2019-01-26T03:07:46.818Z,5.70
2019-01-26T03:10:16.211Z,5.80
2019-01-26T03:12:43.584Z,6.80
2019-01-26T03:15:13.774Z,6.50
2019-01-26T03:17:41.132Z,7.30
2019-01-26T03:20:09.912Z,8.10
2019-01-26T03:22:37.257Z,8.40
2019-01-26T03:25:05.176Z,6.20
2019-01-26T03:27:32.605Z,6.80
2019-01-26T03:30:00.035Z,6.00
2019-01-26T03:32:27.359Z,8.10
2019-01-26T03:34:54.639Z,6.00
2019-01-26T03:37:21.939Z,7.80
2019-01-26T03:39:49.281Z,6.10
2019-01-26T03:42:16.587Z,6.10
2019-01-26T03:44:43.951Z,6.50
2019-01-26T03:47:13.800Z,6.20
2019-01-26T03:49:40.409Z,6.50
2019-01-26T03:52:07.673Z,6.30
2019-01-26T03:54:35.019Z,6.20
2019-01-26T03:57:02.436Z,7.60
2019-01-26T03:59:29.719Z,6.30
2019-01-26T04:01:57.023Z,7.10
2019-01-26T04:04:24.340Z,6.90
2019-01-26T04:06:51.658Z,6.30
2019-01-26T04:09:19.054Z,8.20
2019-01-26T04:11:46.359Z,6.30
2019-01-26T04:14:13.623Z,8.10
2019-01-26T04:16:40.960Z,7.80
2019-01-26T04:19:08.275Z,6.30
2019-01-26T04:21:35.685Z,6.30
2019-01-26T04:24:03.035Z,8.30
2019-01-26T04:26:30.282Z,6.30
2019-01-26T04:28:57.559Z,6.30
2019-01-26T04:31:24.879Z,6.30
2019-01-26T04:33:52.308Z,6.30
2019-01-26T04:36:19.696Z,6.30
2019-01-26T04:38:47.193Z,7.20
2019-01-26T04:41:14.541Z,8.90
2019-01-26T04:43:41.933Z,7.50
2019-01-26T04:46:09.474Z,9.40
2019-01-26T04:48:36.852Z,8.80
2019-01-26T04:51:04.289Z,7.10
2019-01-26T04:53:31.626Z,6.30
2019-01-26T04:55:58.900Z,7.50
2019-01-26T04:58:26.231Z,7.80
2019-01-26T05:00:53.524Z,6.30
2019-01-26T05:05:49.260Z,2.80
2019-01-26T05:08:16.699Z,6.30
2019-01-26T05:13:11.487Z,6.20
2019-01-26T05:20:33.369Z,6.10
2019-01-26T05:23:00.653Z,6.10
2019-01-26T05:25:27.937Z,6.00
2019-01-26T05:27:55.319Z,5.90
2019-01-26T05:30:27.735Z,5.90
2019-01-26T05:32:55.201Z,5.90
2019-01-26T05:35:22.526Z,5.80
2019-01-26T05:37:49.914Z,5.80
2019-01-26T05:40:17.574Z,5.70
2019-01-26T05:45:14.709Z,5.70
2019-01-26T05:47:48.302Z,5.60
2019-01-26T05:50:14.412Z,5.60
2019-01-26T05:55:09.389Z,5.60
2019-01-26T05:57:36.825Z,5.60
2019-01-26T06:00:05.750Z,5.60
2019-01-26T06:02:33.244Z,5.60
2019-01-26T06:05:00.566Z,5.60
2019-01-26T06:07:27.979Z,5.70
2019-01-26T06:09:55.359Z,5.70
2019-01-26T06:12:22.800Z,5.70
2019-01-26T06:14:50.045Z,5.70
2019-01-26T06:17:17.521Z,5.80
2019-01-26T06:19:44.825Z,5.80
2019-01-26T06:24:39.448Z,5.80
2019-01-26T06:27:06.731Z,5.90
2019-01-26T06:29:41.738Z,5.90
2019-01-26T06:32:09.174Z,5.90
2019-01-26T06:34:36.477Z,5.90
2019-01-26T06:37:03.855Z,6.00
2019-01-26T06:39:31.222Z,6.00
2019-01-26T06:41:58.562Z,6.00
2019-01-26T06:46:53.250Z,6.00
2019-01-26T06:49:20.780Z,6.10
2019-01-26T06:51:53.964Z,6.10
2019-01-26T06:56:48.717Z,6.20
2019-01-26T06:59:16.197Z,6.20
2019-01-26T07:01:43.555Z,6.20
2019-01-26T07:04:12.821Z,6.30
2019-01-26T07:06:44.724Z,6.30
2019-01-26T07:14:06.829Z,6.40
2019-01-26T07:19:04.746Z,6.50
2019-01-26T07:21:32.121Z,6.50
2019-01-26T07:23:59.415Z,6.60
2019-01-26T07:26:26.743Z,6.60
2019-01-26T07:28:54.157Z,6.60
2019-01-26T07:31:21.471Z,6.60
2019-01-26T07:41:12.024Z,6.80
2019-01-26T07:43:39.391Z,6.80
2019-01-26T07:46:06.854Z,6.80
2019-01-26T07:51:01.559Z,6.90
2019-01-26T07:53:28.994Z,6.90
2019-01-26T07:55:56.577Z,7.00
2019-01-26T07:58:23.917Z,7.00
2019-01-26T08:00:51.712Z,7.00
2019-01-26T08:05:46.991Z,7.00
2019-01-26T08:08:14.392Z,7.10
2019-01-26T08:10:41.844Z,7.20
2019-01-26T08:15:37.753Z,7.30
2019-01-26T08:18:06.782Z,7.30
2019-01-26T08:20:34.128Z,7.30
2019-01-26T08:23:01.480Z,7.40
2019-01-26T08:25:30.093Z,7.40
2019-01-26T08:28:04.842Z,7.40
2019-01-26T08:31:17.516Z,7.40
2019-01-26T08:33:44.865Z,7.60
2019-01-26T08:44:13.256Z,7.70
2019-01-26T08:46:40.692Z,7.70
2019-01-26T08:49:08.841Z,7.70
2019-01-26T08:51:36.348Z,7.70
2019-01-26T08:54:03.906Z,7.80
2019-01-26T08:56:31.384Z,7.80
2019-01-26T08:58:58.786Z,7.80
2019-01-26T09:04:24.334Z,7.90
2019-01-26T09:07:03.851Z,7.90
2019-01-26T09:09:31.418Z,7.90
2019-01-26T09:19:22.042Z,8.00
2019-01-26T09:21:49.471Z,8.00
2019-01-26T09:24:18.710Z,8.10
2019-01-26T09:26:46.170Z,8.00
2019-01-26T09:29:13.504Z,8.00
2019-01-26T09:31:42.452Z,8.10
2019-01-26T09:34:09.876Z,8.10
2019-01-26T09:36:37.355Z,8.10
2019-01-26T09:39:08.536Z,8.10
2019-01-26T09:44:03.362Z,8.20
2019-01-26T09:48:58.189Z,8.20
2019-01-26T09:51:25.569Z,8.20
2019-01-26T09:53:53.081Z,8.20
2019-01-26T09:56:20.630Z,8.20
2019-01-26T09:58:47.977Z,8.20
2019-01-26T10:01:15.292Z,8.30
2019-01-26T10:06:10.092Z,8.30
2019-01-26T10:08:37.573Z,8.30
2019-01-26T10:13:32.405Z,8.30
2019-01-26T10:15:59.814Z,8.40
2019-01-26T10:20:54.906Z,8.40
2019-01-26T10:23:22.374Z,8.40
2019-01-26T10:25:49.789Z,8.40
2019-01-26T10:28:18.096Z,8.40
2019-01-26T10:33:16.229Z,8.40
2019-01-26T10:35:56.741Z,8.40
2019-01-26T10:38:24.103Z,8.40
2019-01-26T10:41:09.782Z,8.50
2019-01-26T10:46:10.385Z,8.50
2019-01-26T10:48:37.837Z,8.60
2019-01-26T10:51:05.209Z,8.60
2019-01-26T10:53:34.788Z,8.60
2019-01-26T10:56:02.256Z,8.60
2019-01-26T10:58:29.695Z,8.60
2019-01-26T11:00:57.124Z,8.70
2019-01-26T11:03:24.650Z,8.70
2019-01-26T11:08:19.367Z,8.70
2019-01-26T11:10:46.782Z,8.80
2019-01-26T11:13:14.237Z,8.80
2019-01-26T11:15:41.546Z,8.80
2019-01-26T11:18:09.089Z,8.90
2019-01-26T11:20:36.534Z,8.90
2019-01-26T11:23:04.046Z,8.90
2019-01-26T11:25:31.625Z,8.90
2019-01-26T11:27:58.999Z,9.00
2019-01-26T11:30:28.113Z,9.00
2019-01-26T11:32:55.908Z,9.10
2019-01-26T11:35:23.433Z,9.20
2019-01-26T11:37:50.866Z,9.20
2019-01-26T11:40:21.696Z,9.30
2019-01-26T11:42:49.256Z,9.40
2019-01-26T11:45:33.847Z,9.40
2019-01-26T11:48:02.327Z,9.50
2019-01-26T11:50:35.059Z,9.60
2019-01-26T11:53:02.495Z,9.60
2019-01-26T11:55:35.819Z,9.70
2019-01-26T11:58:03.266Z,9.70
2019-01-26T12:00:59.533Z,9.80
2019-01-26T12:06:28.473Z,10.00
2019-01-26T12:08:55.843Z,10.10
2019-01-26T12:11:23.321Z,10.10
2019-01-26T12:13:50.848Z,10.10
2019-01-26T12:16:18.364Z,10.20
2019-01-26T12:18:45.778Z,10.20
2019-01-26T12:21:13.092Z,10.20
2019-01-26T12:23:40.476Z,13.50
2019-01-26T12:28:35.443Z,10.30
2019-01-26T12:33:30.374Z,10.30
2019-01-26T12:35:57.972Z,10.40
2019-01-26T12:38:25.491Z,10.40
2019-01-26T12:40:52.952Z,10.40
2019-01-26T12:43:20.537Z,10.50
2019-01-26T12:45:48.022Z,10.50
2019-01-26T12:50:42.778Z,10.60
2019-01-26T12:53:10.170Z,10.60
2019-01-26T12:55:37.658Z,10.40
2019-01-26T12:58:05.110Z,10.60
2019-01-26T13:00:32.590Z,10.60
2019-01-26T13:03:00.606Z,10.70
2019-01-26T13:05:28.244Z,10.60
2019-01-26T13:07:55.695Z,10.60
2019-01-26T13:10:26.998Z,10.70
2019-01-26T13:12:54.288Z,10.70
2019-01-26T13:15:21.698Z,13.90
2019-01-26T13:17:49.090Z,13.60
2019-01-26T13:20:16.565Z,10.70
2019-01-26T13:22:44.000Z,10.70
2019-01-26T13:25:12.870Z,10.70
2019-01-26T13:27:40.295Z,10.60
2019-01-26T13:30:11.746Z,11.00
2019-01-26T13:32:39.156Z,10.70
2019-01-26T13:35:06.773Z,10.70
2019-01-26T13:37:34.186Z,10.70
2019-01-26T13:42:29.131Z,10.70
2019-01-26T13:44:56.532Z,10.70
2019-01-26T13:47:23.952Z,10.70
2019-01-26T13:49:51.428Z,10.60
2019-01-26T13:52:18.929Z,10.70
2019-01-26T13:54:46.358Z,10.70
2019-01-26T13:57:13.778Z,10.70
2019-01-26T13:59:41.310Z,10.60
2019-01-26T14:02:08.687Z,10.70
2019-01-26T14:04:36.019Z,10.70
2019-01-26T14:07:03.366Z,10.70
2019-01-26T14:09:30.848Z,13.20
2019-01-26T14:11:58.318Z,10.70
2019-01-26T14:14:25.900Z,10.70
2019-01-26T14:16:53.305Z,10.70
2019-01-26T14:19:20.780Z,10.70
2019-01-26T14:21:48.207Z,10.70
2019-01-26T14:24:15.593Z,10.70
2019-01-26T14:26:49.502Z,10.60
2019-01-26T14:29:12.279Z,10.70
2019-01-26T14:31:39.876Z,11.20
2019-01-26T14:34:07.329Z,10.70
2019-01-26T14:36:34.807Z,10.70
2019-01-26T14:39:03.694Z,10.70
2019-01-26T14:41:31.147Z,10.70
2019-01-26T14:43:58.525Z,10.70
2019-01-26T14:46:25.841Z,10.70
2019-01-26T14:48:53.249Z,10.70
2019-01-26T14:53:48.071Z,10.70
2019-01-26T14:56:15.461Z,10.70
2019-01-26T14:58:42.897Z,10.70
2019-01-26T15:01:10.202Z,10.70
2019-01-26T15:03:37.666Z,10.60
2019-01-26T15:06:05.121Z,10.60
2019-01-26T15:08:33.205Z,10.70
2019-01-26T15:11:00.550Z,10.70
2019-01-26T15:13:28.003Z,10.70
2019-01-26T15:15:55.338Z,10.70
2019-01-26T15:18:22.761Z,10.70
2019-01-26T15:20:50.225Z,10.60
2019-01-26T15:23:28.125Z,10.60
2019-01-26T15:25:55.539Z,10.60
2019-01-26T15:28:24.309Z,10.60
2019-01-26T15:30:51.769Z,10.60
2019-01-26T15:33:19.238Z,10.60
2019-01-26T15:35:46.655Z,10.60
2019-01-26T15:38:14.120Z,10.60
2019-01-26T15:43:08.871Z,10.50
2019-01-26T15:45:39.218Z,10.50
2019-01-26T15:48:06.995Z,10.50
2019-01-26T15:50:34.405Z,10.50
2019-01-26T15:53:02.754Z,10.50
2019-01-26T15:55:30.192Z,10.50
2019-01-26T15:57:57.646Z,10.50
2019-01-26T16:00:27.776Z,10.40
2019-01-26T16:02:55.138Z,10.40
2019-01-26T16:05:22.626Z,10.40
2019-01-26T16:07:50.030Z,11.10
2019-01-26T16:10:19.534Z,10.40
2019-01-26T16:12:46.883Z,10.40
2019-01-26T16:15:17.034Z,10.40
2019-01-26T16:17:44.558Z,10.40
2019-01-26T16:20:12.352Z,10.40
2019-01-26T16:22:39.717Z,10.40
2019-01-26T16:25:07.714Z,10.40
2019-01-26T16:27:35.203Z,10.40
2019-01-26T16:30:03.197Z,10.60
2019-01-26T16:34:57.941Z,10.30
2019-01-26T16:37:25.433Z,10.30
2019-01-26T16:39:53.222Z,10.40
2019-01-26T16:44:47.915Z,10.30
2019-01-26T16:47:15.431Z,10.30
2019-01-26T16:49:42.901Z,10.30
2019-01-26T16:52:13.998Z,10.30
2019-01-26T16:54:39.519Z,10.20
2019-01-26T16:57:07.295Z,10.20
2019-01-26T16:59:35.205Z,10.20
2019-01-26T17:02:02.805Z,10.20
2019-01-26T17:04:30.395Z,10.20
2019-01-26T17:06:57.927Z,10.20
2019-01-26T17:09:25.421Z,10.20
2019-01-26T17:11:52.820Z,10.20
2019-01-26T17:14:20.771Z,10.20
2019-01-26T17:16:48.379Z,10.20
2019-01-26T17:19:15.934Z,10.20
2019-01-26T17:21:43.372Z,10.20
2019-01-26T17:24:10.738Z,10.20
2019-01-26T17:26:38.162Z,10.20
2019-01-26T17:29:05.579Z,10.20
2019-01-26T17:31:33.106Z,10.20
2019-01-26T17:34:00.876Z,10.20
2019-01-26T17:36:28.395Z,12.10
2019-01-26T17:38:55.833Z,12.30
2019-01-26T17:41:23.328Z,10.10
2019-01-26T17:43:50.767Z,10.10
2019-01-26T17:46:31.411Z,10.10
2019-01-26T17:49:00.011Z,10.10
2019-01-26T17:51:27.479Z,10.10
2019-01-26T17:53:55.173Z,10.10
2019-01-26T17:56:34.113Z,10.10
2019-01-26T17:59:02.146Z,10.10
2019-01-26T18:01:29.537Z,10.10
2019-01-26T18:03:57.675Z,11.90
2019-01-26T18:06:25.372Z,10.10
2019-01-26T18:08:53.148Z,10.20
2019-01-26T18:11:43.255Z,9.10
2019-01-26T18:14:17.577Z,10.10
2019-01-26T18:16:45.710Z,10.10
2019-01-26T18:19:13.126Z,10.10
2019-01-26T18:21:40.978Z,9.70
2019-01-26T18:24:08.956Z,14.30
2019-01-26T18:26:36.742Z,10.20
2019-01-26T18:29:04.828Z,10.20
2019-01-26T18:31:35.070Z,10.30
2019-01-26T18:34:02.728Z,10.20
2019-01-26T18:36:30.294Z,10.20
2019-01-26T18:38:57.775Z,10.20
2019-01-26T18:41:25.211Z,10.30
2019-01-26T18:43:52.538Z,10.20
2019-01-26T18:46:19.928Z,10.30
2019-01-26T18:48:48.863Z,10.20
2019-01-26T18:51:16.540Z,10.20
2019-01-26T18:53:44.234Z,10.30
2019-01-26T18:56:12.134Z,10.20
2019-01-26T18:58:39.406Z,10.20
2019-01-26T19:01:06.768Z,10.20
2019-01-26T19:06:05.875Z,10.20
2019-01-26T19:08:33.181Z,10.20
2019-01-26T19:11:00.573Z,10.20
2019-01-26T19:13:27.890Z,12.50
2019-01-26T19:15:55.227Z,10.20
2019-01-26T19:18:22.693Z,12.80
2019-01-26T19:20:50.764Z,10.20
2019-01-26T19:23:18.067Z,10.70
2019-01-26T19:25:45.440Z,10.20
2019-01-26T19:30:40.109Z,10.20
2019-01-26T19:33:07.629Z,10.20
2019-01-26T19:35:35.605Z,10.10
2019-01-26T19:38:03.608Z,10.10
2019-01-26T19:40:31.811Z,10.10
2019-01-26T19:42:59.260Z,10.10
2019-01-26T19:45:26.740Z,10.00
2019-01-26T19:47:54.410Z,10.10
2019-01-26T19:50:21.979Z,10.10
2019-01-26T19:52:49.763Z,10.10
2019-01-26T19:55:18.733Z,10.10
2019-01-26T19:57:46.447Z,10.10
2019-01-26T20:00:15.071Z,11.80
2019-01-26T20:02:42.920Z,10.10
2019-01-26T20:05:11.488Z,11.40
2019-01-26T20:10:07.833Z,10.10
2019-01-26T20:12:35.199Z,10.10
2019-01-26T20:15:05.455Z,10.00
2019-01-26T20:17:33.731Z,10.00
2019-01-26T20:20:01.358Z,10.00
2019-01-26T20:22:28.923Z,10.00
2019-01-26T20:24:56.494Z,10.00
2019-01-26T20:27:28.995Z,9.90
2019-01-26T20:29:57.426Z,10.00
2019-01-26T20:32:24.843Z,9.90
2019-01-26T20:34:52.298Z,9.90
2019-01-26T20:37:19.791Z,9.90
2019-01-26T20:39:47.621Z,9.90
2019-01-26T20:42:15.681Z,9.90
2019-01-26T20:44:43.629Z,9.90
2019-01-26T20:47:11.115Z,9.90
2019-01-26T20:52:07.337Z,9.90
2019-01-26T20:57:02.321Z,9.80
2019-01-26T20:59:31.172Z,9.80
2019-01-26T21:01:59.316Z,9.80
2019-01-26T21:04:28.910Z,9.80
2019-01-26T21:06:57.944Z,9.80
2019-01-26T21:09:25.607Z,9.70
2019-01-26T21:11:53.168Z,9.80
2019-01-26T21:14:24.034Z,9.70
2019-01-26T21:16:51.502Z,9.70
2019-01-26T21:19:18.958Z,9.70
2019-01-26T21:21:46.445Z,9.70
2019-01-26T21:24:13.914Z,9.70
2019-01-26T21:26:41.375Z,9.70
2019-01-26T21:29:08.811Z,9.70
2019-01-26T21:34:04.255Z,9.50
2019-01-26T21:36:31.672Z,9.70
2019-01-26T21:38:59.246Z,9.60
2019-01-26T21:41:26.924Z,9.60
2019-01-26T21:43:54.712Z,9.70
2019-01-26T21:46:22.188Z,9.60
2019-01-26T21:48:49.915Z,9.70
2019-01-26T21:51:17.788Z,9.70
2019-01-26T21:53:45.246Z,9.60
2019-01-26T21:56:12.703Z,9.60
2019-01-26T21:58:40.082Z,9.60
2019-01-26T22:03:34.922Z,9.60
2019-01-26T22:06:02.479Z,9.60
2019-01-26T22:08:29.930Z,9.60
2019-01-26T22:10:57.435Z,9.60
2019-01-26T22:13:24.881Z,9.60
2019-01-26T22:15:52.262Z,9.60
2019-01-26T22:18:19.692Z,9.60
2019-01-26T22:20:46.980Z,9.60
2019-01-26T22:23:17.810Z,9.60
2019-01-26T22:25:45.230Z,9.60
2019-01-26T22:28:12.592Z,9.50
2019-01-26T22:30:40.038Z,9.50
2019-01-26T22:33:07.517Z,9.50
2019-01-26T22:35:35.295Z,9.50
2019-01-26T22:38:03.135Z,9.50
2019-01-26T22:40:32.438Z,9.50
2019-01-26T22:42:59.804Z,9.50
2019-01-26T22:45:27.610Z,9.50
2019-01-26T22:47:55.902Z,9.50
2019-01-26T22:50:23.615Z,9.50
2019-01-26T22:52:51.880Z,9.40
2019-01-26T22:57:48.103Z,9.40
2019-01-26T23:00:51.835Z,9.40
2019-01-26T23:03:22.150Z,9.40
2019-01-26T23:06:12.892Z,9.40
2019-01-26T23:08:40.453Z,12.20
2019-01-26T23:11:39.271Z,8.30
2019-01-26T23:14:41.539Z,9.30
2019-01-26T23:17:37.985Z,9.30
2019-01-26T23:20:38.554Z,9.30
2019-01-26T23:23:40.434Z,9.20
2019-01-26T23:26:39.209Z,9.20
2019-01-26T23:30:03.030Z,9.20
2019-01-26T23:32:30.371Z,9.20
2019-01-26T23:34:57.767Z,9.20
2019-01-26T23:37:27.198Z,9.20
2019-01-26T23:39:54.687Z,8.80
2019-01-26T23:42:22.124Z,9.20
2019-01-26T23:44:49.585Z,9.20
2019-01-26T23:47:17.108Z,9.10
2019-01-26T23:49:44.554Z,9.10
2019-01-26T23:52:12.128Z,9.20
2019-01-26T23:54:39.588Z,9.10
2019-01-26T23:57:07.103Z,10.50
2019-01-26T23:59:34.474Z,9.10
